Time;durP1;ratioP1;P1;durP2;ratioP2;P2;SDS_P1;SDS_P2;PMS_P1;PMS_P2;Temp;Humidity;BMP_temperature;BMP_pressure;BME280_temperature;BME280_humidity;BME280_pressure;Samples;Min_cycle;Max_cycle;Signal;HPM_P1;HPM_P2
2023/04/15 00:02:14;;;;;;;0.20;0.20;;;7.20;99.90;;;;;;4991300;28;20027;-74
2023/04/15 00:04:39;;;;;;;0.13;0.13;;;7.20;99.90;;;;;;4992295;28;20019;-74
2023/04/15 00:07:05;;;;;;;0.10;0.10;;;7.20;99.90;;;;;;5026852;23;20103;-75
2023/04/15 00:09:33;;;;;;;0.10;0.10;;;7.20;99.90;;;;;;5032690;28;20483;-75
2023/04/15 00:12:02;;;;;;;0.10;0.10;;;7.20;99.90;;;;;;5011102;28;20030;-75
2023/04/15 00:14:28;;;;;;;0.17;0.17;;;7.10;99.90;;;;;;5013166;28;20510;-75
2023/04/15 00:16:55;;;;;;;0.10;0.10;;;7.10;99.90;;;;;;4991852;28;20038;-75
2023/04/15 00:19:20;;;;;;;0.15;0.15;;;7.10;99.90;;;;;;4993601;28;20022;-74
2023/04/15 00:21:48;;;;;;;0.10;0.10;;;7.10;99.90;;;;;;4993280;28;20033;-75
2023/04/15 00:24:14;;;;;;;0.10;0.10;;;7.10;99.90;;;;;;5009462;28;20030;-74
2023/04/15 00:26:39;;;;;;;0.10;0.10;;;7.10;99.90;;;;;;5012135;28;20553;-74
2023/04/15 00:29:05;;;;;;;0.13;0.13;;;7.10;99.90;;;;;;5013609;28;20037;-74
2023/04/15 00:31:33;;;;;;;0.20;0.20;;;7.10;99.90;;;;;;5016852;28;20059;-74
2023/04/15 00:33:59;;;;;;;0.20;0.20;;;7.10;99.90;;;;;;5002755;28;20439;-75
2023/04/15 00:36:25;;;;;;;0.10;0.10;;;7.10;99.90;;;;;;5018316;23;20064;-73
2023/04/15 00:38:50;;;;;;;0.20;0.20;;;7.20;99.90;;;;;;5014479;28;20507;-74
2023/04/15 00:41:18;;;;;;;0.20;0.20;;;7.10;99.90;;;;;;5019036;28;20033;-74
2023/04/15 00:43:46;;;;;;;0.20;0.20;;;7.20;99.90;;;;;;5018126;28;20030;-75
2023/04/15 00:46:17;;;;;;;0.15;0.15;;;7.20;99.90;;;;;;5016165;28;20026;-75
2023/04/15 00:48:42;;;;;;;0.10;0.10;;;7.20;99.90;;;;;;5031077;23;20025;-73
2023/04/15 00:51:08;;;;;;;0.10;0.10;;;7.20;99.90;;;;;;5018313;28;20037;-73
2023/04/15 00:53:34;;;;;;;0.17;0.17;;;7.20;99.90;;;;;;5017718;28;20498;-72
2023/04/15 00:55:59;;;;;;;0.20;0.20;;;7.30;99.90;;;;;;5018167;28;20113;-72
2023/04/15 00:58:26;;;;;;;0.20;0.20;;;7.20;99.90;;;;;;5017608;28;20096;-73
2023/04/15 01:00:54;;;;;;;0.20;0.20;;;7.30;99.90;;;;;;5000415;28;20402;-72
2023/04/15 01:03:20;;;;;;;0.20;0.20;;;7.30;99.90;;;;;;5017383;28;20066;-72
2023/04/15 01:05:46;;;;;;;0.10;0.10;;;7.30;99.90;;;;;;5018101;28;20026;-72
2023/04/15 01:08:11;;;;;;;0.10;0.10;;;7.30;99.90;;;;;;5013611;28;20057;-72
2023/04/15 01:10:38;;;;;;;0.20;0.20;;;7.20;99.90;;;;;;5017132;28;20532;-73
2023/04/15 01:13:03;;;;;;;0.20;0.20;;;7.30;99.90;;;;;;4999763;28;20054;-72
2023/04/15 01:15:30;;;;;;;0.20;0.20;;;7.30;99.90;;;;;;5018205;28;20048;-72
2023/04/15 01:17:58;;;;;;;0.20;0.20;;;7.30;99.90;;;;;;5000654;28;20112;-72
2023/04/15 01:20:23;;;;;;;0.13;0.13;;;7.30;99.90;;;;;;5017621;28;20025;-72
2023/04/15 01:22:50;;;;;;;0.20;0.20;;;7.20;99.90;;;;;;5017052;28;20096;-72
2023/04/15 01:25:25;;;;;;;0.13;0.13;;;7.20;99.90;;;;;;4999635;28;20026;-73
2023/04/15 01:27:50;;;;;;;0.20;0.20;;;7.30;99.90;;;;;;5011936;28;20478;-72
2023/04/15 01:30:16;;;;;;;0.20;0.20;;;7.20;99.90;;;;;;5017683;28;20113;-73
2023/04/15 01:32:41;;;;;;;0.20;0.20;;;7.20;99.90;;;;;;4999673;28;20049;-72
2023/04/15 01:35:07;;;;;;;0.10;0.10;;;7.30;99.90;;;;;;5017140;28;20401;-72
2023/04/15 01:37:33;;;;;;;0.20;0.20;;;7.30;99.90;;;;;;5015773;28;20026;-72
2023/04/15 01:39:59;;;;;;;0.20;0.20;;;7.30;99.90;;;;;;5017046;28;20046;-72
2023/04/15 01:42:26;;;;;;;0.10;0.10;;;7.30;99.90;;;;;;5016705;28;20069;-72
2023/04/15 01:44:52;;;;;;;0.20;0.20;;;7.30;99.90;;;;;;5016905;28;20493;-72
2023/04/15 01:47:18;;;;;;;0.10;0.10;;;7.30;99.90;;;;;;4998894;28;20026;-73
2023/04/15 01:49:43;;;;;;;0.10;0.10;;;7.30;99.90;;;;;;5017392;28;20033;-72
2023/04/15 01:52:09;;;;;;;0.10;0.10;;;7.30;99.90;;;;;;5017570;28;20033;-72
2023/04/15 01:54:34;;;;;;;0.20;0.20;;;7.30;99.90;;;;;;4999518;28;20022;-72
2023/04/15 01:57:01;;;;;;;0.10;0.10;;;7.30;99.90;;;;;;5016720;28;20025;-72
2023/04/15 01:59:26;;;;;;;0.20;0.20;;;7.30;99.90;;;;;;4999247;28;20048;-72
2023/04/15 02:01:52;;;;;;;0.20;0.20;;;7.30;99.90;;;;;;5017055;28;20427;-72
2023/04/15 02:04:17;;;;;;;0.10;0.10;;;7.30;99.90;;;;;;5017050;28;20476;-72
2023/04/15 02:06:43;;;;;;;0.20;0.20;;;7.30;99.90;;;;;;5016606;28;20040;-72
2023/04/15 02:09:09;;;;;;;0.15;0.15;;;7.20;99.90;;;;;;5016755;28;20033;-72
2023/04/15 02:11:36;;;;;;;0.20;0.20;;;7.30;99.90;;;;;;5016828;28;20025;-72
2023/04/15 02:14:03;;;;;;;0.10;0.10;;;7.30;99.90;;;;;;5015120;28;20458;-73
2023/04/15 02:16:29;;;;;;;0.20;0.20;;;7.30;99.90;;;;;;5016912;28;20018;-72
2023/04/15 02:18:55;;;;;;;0.20;0.20;;;7.30;99.90;;;;;;5011528;28;20057;-73
2023/04/15 02:21:21;;;;;;;0.10;0.10;;;7.30;99.90;;;;;;4997411;28;20098;-72
2023/04/15 02:23:47;;;;;;;0.20;0.20;;;7.30;99.90;;;;;;4979422;28;20492;-73
2023/04/15 02:26:12;;;;;;;0.20;0.20;;;7.30;99.90;;;;;;5015078;28;20041;-72
2023/04/15 02:28:38;;;;;;;0.10;0.10;;;7.30;99.90;;;;;;5016468;28;20022;-72
2023/04/15 02:31:09;;;;;;;0.10;0.10;;;7.20;99.90;;;;;;5005558;28;20048;-73
2023/04/15 02:33:35;;;;;;;0.10;0.10;;;7.30;99.90;;;;;;4996498;28;20033;-72
2023/04/15 02:36:01;;;;;;;0.10;0.10;;;7.30;99.90;;;;;;5004473;28;20029;-72
2023/04/15 02:38:27;;;;;;;0.17;0.17;;;7.30;99.90;;;;;;5016607;28;20025;-73
2023/04/15 02:40:52;;;;;;;0.20;0.20;;;7.30;99.90;;;;;;5013369;28;20101;-73
2023/04/15 02:43:18;;;;;;;0.20;0.20;;;7.30;99.90;;;;;;5016144;28;20072;-73
2023/04/15 02:45:45;;;;;;;0.13;0.13;;;7.20;99.90;;;;;;5015377;28;20021;-73
2023/04/15 02:48:11;;;;;;;0.20;0.20;;;7.30;99.90;;;;;;4997081;28;20487;-72
2023/04/15 02:50:39;;;;;;;0.10;0.10;;;7.30;99.90;;;;;;4996362;28;20034;-72
2023/04/15 02:53:05;;;;;;;0.10;0.10;;;7.30;99.90;;;;;;4992833;28;20034;-72
2023/04/15 02:55:30;;;;;;;0.10;0.10;;;7.30;99.90;;;;;;5015330;28;20529;-72
2023/04/15 02:57:59;;;;;;;0.13;0.13;;;7.30;99.90;;;;;;5013911;28;20017;-73
2023/04/15 03:00:25;;;;;;;0.20;0.20;;;7.30;99.90;;;;;;4997952;28;20510;-73
2023/04/15 03:02:55;;;;;;;0.20;0.20;;;7.30;99.90;;;;;;5013860;28;20026;-72
2023/04/15 03:05:23;;;;;;;0.17;0.17;;;7.30;99.90;;;;;;5015277;28;20049;-73
2023/04/15 03:07:49;;;;;;;0.10;0.10;;;7.30;99.90;;;;;;4993289;28;20030;-73
2023/04/15 03:10:14;;;;;;;0.10;0.10;;;7.30;99.90;;;;;;5003206;28;20034;-73
2023/04/15 03:12:40;;;;;;;0.10;0.10;;;7.20;99.90;;;;;;5011864;28;20065;-73
2023/04/15 03:15:07;;;;;;;0.20;0.20;;;7.20;99.90;;;;;;5016108;28;20410;-72
2023/04/15 03:17:32;;;;;;;0.10;0.10;;;7.30;99.90;;;;;;5014933;28;20028;-73
2023/04/15 03:19:58;;;;;;;0.10;0.10;;;7.20;99.90;;;;;;5015886;28;20022;-72
2023/04/15 03:22:25;;;;;;;0.20;0.20;;;7.30;99.90;;;;;;5016163;28;20037;-72
2023/04/15 03:24:50;;;;;;;0.10;0.10;;;7.30;99.90;;;;;;5015869;28;20018;-73
2023/04/15 03:27:16;;;;;;;0.20;0.20;;;7.30;99.90;;;;;;5015807;28;20022;-73
2023/04/15 03:29:41;;;;;;;0.10;0.10;;;7.30;99.90;;;;;;5015483;28;20022;-72
2023/04/15 03:32:07;;;;;;;0.20;0.20;;;7.20;99.90;;;;;;5015359;28;20037;-73
2023/04/15 03:34:32;;;;;;;0.10;0.10;;;7.20;99.90;;;;;;5015886;28;20014;-73
2023/04/15 03:36:58;;;;;;;0.10;0.10;;;7.20;99.90;;;;;;5015414;28;20030;-73
2023/04/15 03:39:24;;;;;;;0.10;0.10;;;7.30;99.90;;;;;;5015359;28;20030;-73
2023/04/15 03:41:49;;;;;;;0.10;0.10;;;7.30;99.90;;;;;;4997817;28;20402;-73
2023/04/15 03:44:15;;;;;;;0.10;0.10;;;7.20;99.90;;;;;;4997981;28;20057;-73
2023/04/15 03:46:41;;;;;;;0.10;0.10;;;7.30;99.90;;;;;;5015917;28;20120;-73
2023/04/15 03:49:08;;;;;;;0.20;0.20;;;7.20;99.90;;;;;;4997562;28;20034;-73
2023/04/15 03:51:34;;;;;;;0.10;0.10;;;7.20;99.90;;;;;;5012807;28;20030;-73
2023/04/15 03:54:00;;;;;;;0.20;0.20;;;7.30;99.90;;;;;;5015092;28;20041;-73
2023/04/15 03:56:26;;;;;;;0.10;0.10;;;7.30;99.90;;;;;;4994026;28;20125;-73
2023/04/15 03:58:52;;;;;;;0.15;0.15;;;7.30;99.90;;;;;;4996264;28;20073;-73
2023/04/15 04:01:18;;;;;;;0.10;0.10;;;7.20;99.90;;;;;;5000792;28;20026;-73
2023/04/15 04:03:43;;;;;;;0.20;0.20;;;7.20;99.90;;;;;;5015588;28;20037;-73
2023/04/15 04:06:11;;;;;;;0.20;0.20;;;7.20;99.90;;;;;;5019307;28;20026;-73
2023/04/15 04:08:36;;;;;;;0.20;0.20;;;7.30;99.90;;;;;;5019525;28;20026;-73
2023/04/15 04:11:02;;;;;;;0.10;0.10;;;7.30;99.90;;;;;;5019132;28;20108;-73
2023/04/15 04:13:28;;;;;;;0.10;0.10;;;7.30;99.90;;;;;;5018789;28;20057;-73
2023/04/15 04:15:53;;;;;;;0.10;0.10;;;7.20;99.90;;;;;;5018774;28;20033;-73
2023/04/15 04:18:19;;;;;;;0.10;0.10;;;7.30;99.90;;;;;;5006204;28;20113;-73
2023/04/15 04:20:45;;;;;;;0.10;0.10;;;7.30;99.90;;;;;;5000026;28;20033;-73
2023/04/15 04:23:10;;;;;;;0.10;0.10;;;7.30;99.90;;;;;;5000904;28;20028;-73
2023/04/15 04:25:36;;;;;;;0.10;0.10;;;7.30;99.90;;;;;;5019288;28;20527;-72
2023/04/15 04:28:02;;;;;;;0.10;0.10;;;7.30;99.90;;;;;;5019242;28;20033;-73
2023/04/15 04:30:28;;;;;;;0.20;0.20;;;7.30;99.90;;;;;;5005819;28;20053;-72
2023/04/15 04:32:54;;;;;;;0.20;0.20;;;7.30;99.90;;;;;;4998985;28;20094;-73
2023/04/15 04:35:20;;;;;;;0.10;0.10;;;7.30;99.90;;;;;;4998170;28;20034;-73
2023/04/15 04:37:46;;;;;;;0.20;0.20;;;7.30;99.90;;;;;;4999339;28;20026;-73
2023/04/15 04:40:12;;;;;;;0.20;0.20;;;7.30;99.90;;;;;;5001127;28;20492;-74
2023/04/15 04:42:38;;;;;;;0.20;0.20;;;7.30;99.90;;;;;;5001081;28;20022;-73
2023/04/15 04:45:04;;;;;;;0.10;0.10;;;7.30;99.90;;;;;;5018459;28;20173;-73
2023/04/15 04:47:29;;;;;;;0.10;0.10;;;7.30;99.90;;;;;;5016396;28;20025;-73
2023/04/15 04:49:55;;;;;;;0.10;0.10;;;7.30;99.90;;;;;;5000841;28;20056;-73
2023/04/15 04:52:20;;;;;;;0.10;0.10;;;7.30;99.90;;;;;;5018719;28;20025;-73
2023/04/15 04:54:46;;;;;;;0.17;0.17;;;7.30;99.90;;;;;;5018566;28;20031;-73
2023/04/15 04:57:12;;;;;;;0.20;0.20;;;7.40;99.90;;;;;;5016586;28;20096;-74
2023/04/15 04:59:39;;;;;;;0.10;0.10;;;7.30;99.90;;;;;;5018561;28;20025;-73
2023/04/15 05:02:05;;;;;;;0.10;0.10;;;7.30;99.90;;;;;;5011064;28;20030;-73
2023/04/15 05:04:31;;;;;;;0.20;0.20;;;7.30;99.90;;;;;;4998801;28;20172;-73
2023/04/15 05:06:58;;;;;;;0.10;0.10;;;7.40;99.90;;;;;;5002449;28;20070;-73
2023/04/15 05:09:23;;;;;;;0.15;0.15;;;7.30;99.90;;;;;;5017979;28;20080;-73
2023/04/15 05:11:49;;;;;;;0.10;0.10;;;7.40;99.90;;;;;;5018417;28;20026;-73
2023/04/15 05:14:14;;;;;;;0.10;0.10;;;7.40;99.90;;;;;;5018279;28;20513;-73
2023/04/15 05:16:40;;;;;;;0.10;0.10;;;7.40;99.90;;;;;;5017340;28;20030;-72
2023/04/15 05:19:06;;;;;;;0.17;0.17;;;7.40;99.90;;;;;;5017424;28;20395;-72
2023/04/15 05:21:32;;;;;;;0.10;0.10;;;7.40;99.90;;;;;;5017976;28;20030;-73
2023/04/15 05:23:57;;;;;;;0.20;0.20;;;7.40;99.90;;;;;;5018050;28;20025;-72
2023/04/15 05:26:23;;;;;;;0.10;0.10;;;7.40;99.90;;;;;;5007039;28;20065;-72
2023/04/15 05:28:49;;;;;;;0.10;0.10;;;7.50;99.90;;;;;;4997796;28;20033;-72
2023/04/15 05:31:15;;;;;;;0.20;0.20;;;7.40;99.90;;;;;;5004897;28;20079;-73
2023/04/15 05:33:40;;;;;;;0.10;0.10;;;7.50;99.90;;;;;;5018066;28;20026;-72
2023/04/15 05:36:06;;;;;;;0.10;0.10;;;7.50;99.90;;;;;;5017787;28;20124;-73
2023/04/15 05:38:32;;;;;;;0.10;0.10;;;7.40;99.90;;;;;;5016839;28;20017;-72
2023/04/15 05:40:57;;;;;;;0.10;0.10;;;7.50;99.90;;;;;;5014595;28;20021;-72
2023/04/15 05:43:23;;;;;;;0.10;0.10;;;7.70;99.90;;;;;;4998691;28;20107;-72
2023/04/15 05:45:48;;;;;;;0.10;0.10;;;7.50;99.90;;;;;;4997771;28;20034;-72
2023/04/15 05:48:14;;;;;;;0.10;0.10;;;7.50;99.90;;;;;;5014400;28;20025;-72
2023/04/15 05:50:41;;;;;;;0.10;0.10;;;7.50;99.90;;;;;;4997087;28;20507;-73
2023/04/15 05:53:07;;;;;;;0.10;0.10;;;7.50;99.90;;;;;;4997660;28;20022;-73
2023/04/15 05:55:33;;;;;;;0.10;0.10;;;7.50;99.90;;;;;;5015187;28;20399;-72
2023/04/15 05:57:58;;;;;;;0.10;0.10;;;7.50;99.90;;;;;;5017586;28;20025;-72
2023/04/15 06:00:24;;;;;;;0.20;0.20;;;7.50;99.90;;;;;;5016027;28;20025;-72
2023/04/15 06:02:51;;;;;;;0.10;0.10;;;7.60;99.90;;;;;;4996259;28;20092;-73
2023/04/15 06:05:17;;;;;;;0.20;0.20;;;7.60;99.90;;;;;;5017060;28;20022;-72
2023/04/15 06:07:42;;;;;;;0.20;0.20;;;7.50;99.90;;;;;;5003686;28;20026;-72
2023/04/15 06:10:08;;;;;;;0.10;0.10;;;7.50;99.90;;;;;;4997385;28;20026;-73
2023/04/15 06:12:34;;;;;;;0.15;0.15;;;7.60;99.90;;;;;;4997084;28;20030;-72
2023/04/15 06:15:00;;;;;;;0.20;0.20;;;7.60;99.90;;;;;;4996537;28;20484;-72
2023/04/15 06:17:26;;;;;;;0.13;0.13;;;7.60;99.90;;;;;;5002883;28;20518;-72
2023/04/15 06:19:54;;;;;;;0.10;0.10;;;7.60;99.90;;;;;;5017442;28;20030;-72
2023/04/15 06:22:21;;;;;;;0.10;0.10;;;7.60;99.90;;;;;;4998965;28;20026;-72
2023/04/15 06:24:49;;;;;;;0.10;0.10;;;7.60;99.90;;;;;;5014366;28;20029;-72
2023/04/15 06:27:15;;;;;;;0.10;0.10;;;7.50;99.90;;;;;;5017532;28;20124;-72
2023/04/15 06:29:40;;;;;;;0.10;0.10;;;7.60;99.90;;;;;;5017098;28;20053;-73
2023/04/15 06:32:06;;;;;;;0.10;0.10;;;7.60;99.90;;;;;;5016690;28;20036;-72
2023/04/15 06:34:32;;;;;;;0.10;0.10;;;7.70;99.90;;;;;;5016433;28;20037;-72
2023/04/15 06:36:58;;;;;;;0.10;0.10;;;7.70;99.90;;;;;;5016241;28;20041;-72
2023/04/15 06:39:23;;;;;;;0.10;0.10;;;7.60;99.90;;;;;;5016598;28;20022;-72
2023/04/15 06:41:49;;;;;;;0.10;0.10;;;7.70;99.90;;;;;;5016954;28;20057;-72
2023/04/15 06:44:15;;;;;;;0.05;0.05;;;7.70;99.90;;;;;;5016337;28;20017;-72
2023/04/15 06:46:40;;;;;;;0.20;0.20;;;7.80;99.90;;;;;;5016184;28;20021;-71
2023/04/15 06:51:35;;;;;;;0.10;0.10;;;7.80;99.90;;;;;;5012250;28;20037;-75
2023/04/15 06:54:01;;;;;;;0.10;0.10;;;7.80;99.90;;;;;;5013987;28;20025;-75
2023/04/15 06:56:27;;;;;;;0.10;0.10;;;7.80;99.90;;;;;;5013839;28;20034;-75
2023/04/15 06:58:52;;;;;;;0.10;0.10;;;7.90;99.90;;;;;;5013328;28;20373;-75
2023/04/15 07:01:18;;;;;;;0.10;0.10;;;7.90;99.90;;;;;;5011570;28;20410;-75
2023/04/15 07:03:44;;;;;;;0.10;0.10;;;7.90;99.90;;;;;;4995033;28;20018;-75
2023/04/15 07:06:09;;;;;;;0.10;0.10;;;7.90;99.90;;;;;;4993973;28;20495;-75
2023/04/15 07:08:35;;;;;;;0.10;0.10;;;8.00;99.90;;;;;;5011008;28;20120;-75
2023/04/15 07:11:01;;;;;;;0.10;0.10;;;8.00;99.90;;;;;;5013212;28;20487;-75
2023/04/15 07:13:28;;;;;;;0.20;0.20;;;8.00;99.90;;;;;;5013421;28;20049;-75
2023/04/15 07:15:54;;;;;;;0.10;0.10;;;8.10;99.90;;;;;;5010912;28;20029;-75
2023/04/15 07:18:20;;;;;;;0.10;0.10;;;8.10;99.90;;;;;;5012599;28;20026;-75
2023/04/15 07:20:45;;;;;;;0.10;0.10;;;8.20;99.90;;;;;;5003132;28;20436;-75
2023/04/15 07:23:11;;;;;;;0.10;0.10;;;8.30;99.90;;;;;;5012827;28;20399;-75
2023/04/15 07:25:36;;;;;;;0.10;0.10;;;8.30;99.90;;;;;;5013497;28;20053;-75
2023/04/15 07:28:02;;;;;;;0.10;0.10;;;8.30;99.90;;;;;;5013522;28;20538;-75
2023/04/15 07:30:28;;;;;;;0.10;0.10;;;8.40;99.90;;;;;;4995307;28;20036;-75
2023/04/15 07:32:53;;;;;;;0.10;0.10;;;8.40;99.90;;;;;;5013170;28;20028;-75
2023/04/15 07:35:20;;;;;;;0.10;0.10;;;8.40;99.90;;;;;;5013350;28;20482;-75
2023/04/15 07:37:46;;;;;;;0.15;0.15;;;8.40;99.90;;;;;;4995913;28;20036;-75
2023/04/15 07:40:15;;;;;;;0.10;0.10;;;8.40;99.90;;;;;;5013272;28;20064;-75
2023/04/15 07:42:41;;;;;;;0.10;0.10;;;8.40;99.90;;;;;;5013325;28;20053;-75
2023/04/15 07:45:08;;;;;;;0.17;0.17;;;8.40;99.90;;;;;;5012707;28;20033;-75
2023/04/15 07:47:33;;;;;;;0.10;0.10;;;8.50;99.90;;;;;;5013129;28;20022;-75
2023/04/15 07:49:59;;;;;;;0.10;0.10;;;8.60;99.90;;;;;;5011419;28;20022;-75
2023/04/15 07:52:27;;;;;;;0.20;0.20;;;8.50;99.90;;;;;;5012472;28;20018;-75
2023/04/15 07:54:53;;;;;;;0.10;0.10;;;8.50;99.90;;;;;;5011835;28;20054;-75
2023/04/15 07:57:19;;;;;;;0.10;0.10;;;8.50;99.90;;;;;;5013180;28;20073;-75
2023/04/15 07:59:44;;;;;;;0.10;0.10;;;8.50;99.90;;;;;;5013004;28;20069;-75
2023/04/15 08:02:10;;;;;;;0.10;0.10;;;8.50;99.90;;;;;;5013276;28;20029;-74
2023/04/15 08:04:36;;;;;;;0.13;0.13;;;8.50;99.90;;;;;;5012269;28;20033;-75
2023/04/15 08:07:03;;;;;;;0.10;0.10;;;8.50;99.90;;;;;;4998067;28;20030;-75
2023/04/15 08:09:28;;;;;;;0.10;0.10;;;8.60;99.90;;;;;;5040059;23;20068;-75
2023/04/15 08:11:55;;;;;;;0.10;0.10;;;8.50;99.90;;;;;;5033150;28;20470;-75
2023/04/15 08:14:21;;;;;;;0.10;0.10;;;8.50;99.90;;;;;;5031455;28;20022;-75
2023/04/15 08:16:49;;;;;;;0.10;0.10;;;8.60;99.90;;;;;;4994915;28;20121;-75
2023/04/15 08:19:15;;;;;;;0.10;0.10;;;8.60;99.90;;;;;;4995045;28;20014;-75
2023/04/15 08:21:40;;;;;;;0.20;0.20;;;8.70;99.90;;;;;;5021965;28;20479;-75
2023/04/15 08:24:06;;;;;;;0.15;0.15;;;8.70;99.90;;;;;;5032362;28;20083;-75
2023/04/15 08:26:34;;;;;;;0.10;0.10;;;8.70;99.90;;;;;;5024557;28;20071;-75
2023/04/15 08:29:00;;;;;;;0.10;0.10;;;8.70;99.90;;;;;;5012534;28;20442;-75
2023/04/15 08:31:28;;;;;;;0.10;0.10;;;8.80;99.90;;;;;;5019742;23;20049;-75
2023/04/15 08:33:56;;;;;;;0.10;0.10;;;8.80;99.90;;;;;;4995082;28;20589;-74
2023/04/15 08:36:22;;;;;;;0.10;0.10;;;8.90;99.90;;;;;;5012409;28;20037;-75
2023/04/15 08:38:47;;;;;;;0.10;0.10;;;8.90;99.90;;;;;;5012428;28;20026;-75
2023/04/15 08:41:24;;;;;;;0.20;0.20;;;8.90;99.90;;;;;;5007953;28;20029;-75
2023/04/15 08:43:56;;;;;;;0.10;0.10;;;9.10;99.90;;;;;;4993201;28;20085;-75
2023/04/15 08:46:22;;;;;;;0.10;0.10;;;9.10;99.90;;;;;;4989980;28;20026;-75
2023/04/15 08:48:48;;;;;;;0.10;0.10;;;9.10;99.90;;;;;;4993082;28;20037;-75
2023/04/15 08:51:16;;;;;;;0.10;0.10;;;9.30;99.90;;;;;;4992708;28;20023;-75
2023/04/15 08:53:46;;;;;;;0.10;0.10;;;9.30;99.90;;;;;;4959880;28;20027;-75
2023/04/15 08:56:15;;;;;;;0.10;0.10;;;9.30;99.90;;;;;;4976135;28;20492;-75
2023/04/15 08:58:41;;;;;;;0.10;0.10;;;9.20;99.90;;;;;;4977048;28;20090;-75
2023/04/15 09:01:06;;;;;;;0.10;0.10;;;9.30;99.90;;;;;;4975835;28;20033;-75
2023/04/15 09:03:33;;;;;;;0.10;0.10;;;9.40;99.90;;;;;;4977213;28;20102;-75
2023/04/15 09:05:59;;;;;;;0.10;0.10;;;9.50;99.90;;;;;;4976667;28;20374;-75
2023/04/15 09:08:25;;;;;;;0.10;0.10;;;9.40;99.90;;;;;;4995062;28;20030;-75
2023/04/15 09:10:51;;;;;;;0.10;0.10;;;9.40;99.90;;;;;;4978682;28;20388;-75
2023/04/15 09:13:17;;;;;;;0.10;0.10;;;9.50;99.90;;;;;;4996438;28;20026;-75
2023/04/15 09:15:43;;;;;;;0.10;0.10;;;9.50;99.90;;;;;;4996369;28;20492;-75
2023/04/15 09:18:12;;;;;;;0.10;0.10;;;9.50;99.90;;;;;;5011235;28;20049;-75
2023/04/15 09:20:41;;;;;;;0.20;0.20;;;9.50;99.90;;;;;;4995770;28;20428;-75
2023/04/15 09:23:14;;;;;;;0.10;0.10;;;9.50;99.90;;;;;;4995461;28;20076;-75
2023/04/15 09:25:43;;;;;;;0.10;0.10;;;9.50;99.90;;;;;;4995994;28;20101;-75
2023/04/15 09:28:09;;;;;;;0.13;0.13;;;9.60;99.90;;;;;;4995661;28;20026;-75
2023/04/15 09:30:35;;;;;;;0.10;0.10;;;9.60;99.90;;;;;;4993151;28;20092;-75
2023/04/15 09:33:06;;;;;;;0.10;0.10;;;9.50;99.90;;;;;;4995344;28;20030;-75
2023/04/15 09:35:32;;;;;;;0.10;0.10;;;9.50;99.90;;;;;;4974842;28;20034;-75
2023/04/15 09:38:04;;;;;;;0.10;0.10;;;9.50;99.90;;;;;;4976649;28;20030;-75
2023/04/15 09:40:35;;;;;;;0.10;0.10;;;9.50;99.90;;;;;;5016562;23;20049;-75
2023/04/15 09:43:01;;;;;;;0.10;0.10;;;9.50;99.90;;;;;;5034971;28;20565;-75
2023/04/15 09:45:27;;;;;;;0.10;0.10;;;9.40;99.90;;;;;;5034319;28;20049;-75
2023/04/15 09:47:53;;;;;;;0.20;0.20;;;9.40;99.90;;;;;;5035022;28;20475;-75
2023/04/15 09:50:19;;;;;;;0.10;0.10;;;9.40;99.90;;;;;;5017523;28;20036;-75
2023/04/15 09:52:45;;;;;;;0.10;0.10;;;9.40;99.90;;;;;;5028850;28;20089;-75
2023/04/15 09:55:12;;;;;;;0.10;0.10;;;9.40;99.90;;;;;;5014954;28;20040;-75
2023/04/15 09:57:40;;;;;;;0.10;0.10;;;9.40;99.90;;;;;;5014301;28;20018;-75
2023/04/15 10:00:07;;;;;;;0.10;0.10;;;9.40;99.90;;;;;;5015386;28;20025;-75
2023/04/15 10:02:34;;;;;;;0.20;0.20;;;9.40;99.90;;;;;;5013864;28;20029;-75
2023/04/15 10:05:00;;;;;;;0.20;0.20;;;9.50;99.90;;;;;;4997388;28;20018;-75
2023/04/15 10:07:26;;;;;;;0.10;0.10;;;9.40;99.90;;;;;;5014782;28;20230;-75
2023/04/15 10:09:55;;;;;;;0.10;0.10;;;9.50;99.90;;;;;;5014210;28;20447;-75
2023/04/15 10:12:21;;;;;;;0.20;0.20;;;9.50;99.90;;;;;;4996954;28;20056;-75
2023/04/15 10:14:51;;;;;;;0.10;0.10;;;9.60;99.90;;;;;;5015057;28;20030;-75
2023/04/15 10:17:19;;;;;;;0.10;0.10;;;9.70;99.90;;;;;;5015036;28;20534;-75
2023/04/15 10:19:46;;;;;;;0.10;0.10;;;9.80;99.90;;;;;;5014714;28;20029;-75
2023/04/15 10:22:13;;;;;;;0.10;0.10;;;9.80;99.90;;;;;;4996252;28;20511;-75
2023/04/15 10:24:39;;;;;;;0.10;0.10;;;9.80;99.90;;;;;;4996897;28;20084;-75
2023/04/15 10:27:05;;;;;;;0.20;0.20;;;9.80;99.90;;;;;;5014709;28;20037;-75
2023/04/15 10:29:31;;;;;;;0.20;0.20;;;9.80;99.90;;;;;;5013866;28;20026;-75
2023/04/15 10:31:59;;;;;;;0.10;0.10;;;9.90;99.90;;;;;;5014434;28;20076;-75
2023/04/15 10:34:25;;;;;;;0.20;0.20;;;10.00;99.90;;;;;;5014126;28;20057;-75
2023/04/15 10:36:56;;;;;;;0.10;0.10;;;10.10;99.90;;;;;;5013855;28;20053;-76
2023/04/15 10:39:36;;;;;;;0.10;0.10;;;10.10;99.90;;;;;;5015322;28;20479;-75
2023/04/15 10:42:14;;;;;;;0.10;0.10;;;10.10;99.90;;;;;;5016641;28;20426;-75
2023/04/15 10:44:43;;;;;;;0.10;0.10;;;10.20;99.90;;;;;;5030530;28;20884;-76
2023/04/15 10:47:14;;;;;;;0.10;0.10;;;10.30;99.90;;;;;;5014194;28;20022;-75
2023/04/15 10:49:45;;;;;;;0.20;0.20;;;10.50;99.90;;;;;;5063116;23;20112;-76
2023/04/15 10:52:11;;;;;;;0.10;0.10;;;10.60;99.90;;;;;;5014318;28;20077;-75
2023/04/15 10:54:38;;;;;;;0.10;0.10;;;10.60;99.90;;;;;;5014123;28;20022;-76
2023/04/15 10:57:03;;;;;;;0.10;0.10;;;10.60;99.90;;;;;;5013449;28;20030;-75
2023/04/15 10:59:30;;;;;;;0.20;0.20;;;10.50;99.90;;;;;;5013661;28;20021;-75
2023/04/15 11:02:00;;;;;;;0.20;0.20;;;10.50;99.90;;;;;;4999915;28;20029;-75
2023/04/15 11:04:51;;;;;;;0.20;0.20;;;10.60;99.90;;;;;;4994073;28;20148;-75
2023/04/15 11:07:39;;;;;;;0.20;0.20;;;10.70;99.90;;;;;;4999932;28;20101;-76
2023/04/15 11:10:16;;;;;;;0.20;0.20;;;11.00;99.90;;;;;;4991385;28;20113;-76
2023/04/15 11:12:43;;;;;;;0.10;0.10;;;11.40;99.90;;;;;;4993840;28;20084;-75
2023/04/15 11:15:34;;;;;;;0.13;0.13;;;11.80;99.90;;;;;;4993754;28;20026;-76
2023/04/15 11:18:22;;;;;;;0.13;0.13;;;12.00;99.90;;;;;;4994205;28;20031;-76
2023/04/15 11:20:53;;;;;;;0.10;0.10;;;12.20;99.90;;;;;;4993338;28;20018;-75
2023/04/15 11:23:27;;;;;;;0.15;0.15;;;12.40;99.90;;;;;;4994274;28;20089;-75
2023/04/15 11:25:55;;;;;;;0.10;0.10;;;12.60;99.90;;;;;;4993790;28;20102;-76
2023/04/15 11:28:23;;;;;;;0.17;0.17;;;12.70;99.90;;;;;;4993285;28;20451;-76
2023/04/15 11:30:49;;;;;;;0.10;0.10;;;12.80;99.90;;;;;;4997093;28;20049;-75
2023/04/15 11:33:15;;;;;;;0.20;0.20;;;13.00;99.90;;;;;;4986062;28;20517;-76
2023/04/15 11:35:41;;;;;;;0.10;0.10;;;13.00;99.90;;;;;;4993654;28;20096;-75
2023/04/15 11:38:12;;;;;;;0.20;0.20;;;13.00;99.90;;;;;;4993835;28;20022;-75
2023/04/15 11:40:39;;;;;;;0.10;0.10;;;13.40;99.90;;;;;;4993088;28;20069;-76
2023/04/15 11:43:24;;;;;;;0.10;0.10;;;13.70;99.90;;;;;;4992396;28;20444;-75
2023/04/15 11:46:04;;;;;;;0.10;0.10;;;13.80;99.90;;;;;;4993608;28;20552;-75
2023/04/15 11:48:34;;;;;;;0.10;0.10;;;14.10;99.90;;;;;;4992507;28;20031;-76
2023/04/15 11:51:02;;;;;;;0.15;0.15;;;14.20;99.90;;;;;;4993575;28;20411;-76
2023/04/15 11:53:47;;;;;;;0.20;0.20;;;14.60;99.90;;;;;;4993351;28;20022;-76
2023/04/15 11:56:18;;;;;;;0.10;0.10;;;14.90;99.90;;;;;;4992192;28;20026;-76
2023/04/15 11:58:45;;;;;;;0.10;0.10;;;15.50;99.90;;;;;;4993873;28;20358;-76
2023/04/15 12:01:10;;;;;;;0.20;0.20;;;15.70;99.90;;;;;;4993132;28;20540;-76
2023/04/15 12:03:42;;;;;;;0.10;0.10;;;16.20;99.90;;;;;;4993709;28;20069;-75
2023/04/15 12:06:31;;;;;;;0.10;0.10;;;16.40;99.90;;;;;;4993921;28;20026;-75
2023/04/15 12:09:05;;;;;;;0.10;0.10;;;16.10;99.90;;;;;;4993477;28;20095;-76
2023/04/15 12:11:34;;;;;;;0.10;0.10;;;16.10;99.90;;;;;;4993891;28;20031;-76
2023/04/15 12:14:11;;;;;;;0.10;0.10;;;16.40;99.90;;;;;;4992897;28;20049;-76
2023/04/15 12:16:48;;;;;;;0.10;0.10;;;16.70;99.90;;;;;;4993475;28;20523;-76
2023/04/15 12:19:21;;;;;;;0.20;0.20;;;16.70;99.90;;;;;;4993228;28;20034;-76
2023/04/15 12:21:48;;;;;;;0.10;0.10;;;16.60;99.90;;;;;;4994121;28;20050;-76
2023/04/15 12:24:14;;;;;;;0.10;0.10;;;16.80;99.90;;;;;;4991942;28;20061;-76
2023/04/15 12:26:53;;;;;;;0.10;0.10;;;16.50;99.90;;;;;;4996663;28;20018;-76
2023/04/15 12:29:19;;;;;;;0.10;0.10;;;16.20;99.90;;;;;;4997150;28;20030;-75
2023/04/15 12:32:13;;;;;;;0.10;0.10;;;16.20;99.90;;;;;;4997562;28;20026;-76
2023/04/15 12:34:49;;;;;;;0.10;0.10;;;16.50;99.90;;;;;;4988788;28;20034;-76
2023/04/15 12:37:15;;;;;;;0.20;0.20;;;17.20;99.90;;;;;;4959675;28;20484;-76
2023/04/15 12:39:42;;;;;;;0.10;0.10;;;17.10;99.90;;;;;;4960032;28;20031;-77
2023/04/15 12:42:08;;;;;;;0.10;0.10;;;17.60;99.90;;;;;;4996028;28;20034;-76
2023/04/15 12:44:37;;;;;;;0.10;0.10;;;18.20;99.90;;;;;;4996922;28;20014;-76
2023/04/15 12:47:03;;;;;;;0.10;0.10;;;18.50;99.90;;;;;;4996984;28;20037;-77
2023/04/15 12:49:29;;;;;;;0.10;0.10;;;18.10;99.90;;;;;;4978602;28;20030;-76
2023/04/15 12:51:56;;;;;;;0.10;0.10;;;17.90;99.90;;;;;;5051770;23;20064;-73
2023/04/15 12:54:21;;;;;;;0.10;0.10;;;18.10;99.90;;;;;;5038220;28;20017;-73
2023/04/15 12:56:48;;;;;;;0.10;0.10;;;17.90;99.90;;;;;;5035349;28;20043;-73
2023/04/15 12:59:16;;;;;;;0.10;0.10;;;17.50;99.90;;;;;;5037087;28;20125;-73